Time;durP1;ratioP1;P1;durP2;ratioP2;P2;SDS_P1;SDS_P2;PMS_P1;PMS_P2;Temp;Humidity;BMP_temperature;BMP_pressure;BME280_temperature;BME280_humidity;BME280_pressure;Samples;Min_cycle;Max_cycle;Signal;HPM_P1;HPM_P2
2021/01/06 00:01:30;;;;;;;;;;;;;;;;;;4331331;33;20065;-73
2021/01/06 00:04:27;;;;;;;;;;;;;;;;;;4331582;33;19979;-71
2021/01/06 00:07:16;;;;;;;;;;;;;;;;;;4319722;33;20031;-73
2021/01/06 00:09:54;;;;;;;;;;;;;;;;;;4343200;32;20040;-71
2021/01/06 00:12:51;;;;;;;;;;;;;;;;;;4353017;32;19970;-71
2021/01/06 00:15:43;;;;;;;;;;;;;;;;;;4364097;32;19986;-71
2021/01/06 00:18:31;;;;;;;;;;;;;;;;;;4349748;32;20473;-70
2021/01/06 00:21:21;;;;;;;;;;;;;;;;;;4363487;32;20058;-71
2021/01/06 00:24:15;;;;;;;;;;;;;;;;;;4364119;32;20063;-71
2021/01/06 00:27:07;;;;;;;;;;;;;;;;;;4362249;32;20488;-71
2021/01/06 00:29:39;;;;;;;;;;;;;;;;;;4348839;32;19986;-71
2021/01/06 00:32:32;;;;;;;;;;;;;;;;;;4355552;32;20001;-71
2021/01/06 02:09:47;;;;;;;;;;;;;;;;;;4360859;32;20012;-72
2021/01/06 02:15:25;;;;;;;;;;;;;;;;;;4362407;32;19974;-71
2021/01/06 02:58:06;;;;;;;;;;;;;;;;;;4377026;32;19985;-72
2021/01/06 03:00:57;;;;;;;;;;;;;;;;;;4374461;32;19992;-72
2021/01/06 03:04:03;;;;;;;;;;;;;;;;;;4376477;32;19989;-72
2021/01/06 03:07:12;;;;;;;;;;;;;;;;;;4376089;32;19975;-71
2021/01/06 03:10:38;;;;;;;;;;;;;;;;;;4366668;32;20074;-72
2021/01/06 03:13:18;;;;;;;;;;;;;;;;;;4362350;32;19969;-71
2021/01/06 03:27:39;;;;;;;;;;;;;;;;;;4352732;32;19997;-71
2021/01/06 03:30:30;;;;;;;;;;;;;;;;;;4340166;32;19978;-72
2021/01/06 03:33:38;;;;;;;;;;;;;;;;;;4355843;32;20002;-71
2021/01/06 03:36:51;;;;;;;;;;;;;;;;;;4364099;32;19970;-72
2021/01/06 03:39:50;;;;;;;;;;;;;;;;;;4364365;32;19973;-71
2021/01/06 03:42:58;;;;;;;;;;;;;;;;;;4363167;32;19997;-71
2021/01/06 03:46:01;;;;;;;;;;;;;;;;;;4331633;33;19979;-71
2021/01/06 04:54:45;;;;;;;;;;;;;;;;;;4373369;32;19997;-71
2021/01/06 05:53:22;;;;;;;;;;;;;;;;;;4347825;33;20403;-71
2021/01/06 05:56:51;;;;;;;;;;;;;;;;;;4356224;32;20059;-73
2021/01/06 07:53:13;;;;;;;;;;;;;;;;;;4364750;32;19977;-73
2021/01/06 07:56:00;;;;;;;;;;;;;;;;;;4357365;32;19985;-72
2021/01/06 07:59:10;;;;;;;;;;;;;;;;;;4370587;32;19985;-72
2021/01/06 08:02:19;;;;;;;;;;;;;;;;;;4364811;32;20052;-73
2021/01/06 08:05:22;;;;;;;;;;;;;;;;;;4353095;32;19982;-72
2021/01/06 08:08:12;;;;;;;;;;;;;;;;;;4365268;32;20059;-72
2021/01/06 08:11:20;;;;;;;;;;;;;;;;;;4340380;32;20055;-72
2021/01/06 08:14:39;;;;;;;;;;;;;;;;;;4354676;32;20009;-72
2021/01/06 08:17:37;;;;;;;;;;;;;;;;;;4342472;32;20006;-71
2021/01/06 08:20:10;;;;;;;;;;;;;;;;;;4363360;32;20079;-72
2021/01/06 08:23:04;;;;;;;;;;;;;;;;;;4352855;32;19970;-71
2021/01/06 08:25:37;;;;;;;;;;;;;;;;;;4364053;32;19990;-71
2021/01/06 08:28:30;;;;;;;;;;;;;;;;;;4351062;32;19982;-73
2021/01/06 08:31:16;;;;;;;;;;;;;;;;;;4350668;32;19993;-72
2021/01/06 08:34:23;;;;;;;;;;;;;;;;;;4353687;32;19978;-71
2021/01/06 09:17:44;;;;;;;;;;;;;;;;;;4342730;32;19986;-70
2021/01/06 09:20:46;;;;;;;;;;;;;;;;;;4360403;32;19974;-71
2021/01/06 09:23:58;;;;;;;;;;;;;;;;;;4353886;32;20043;-69
2021/01/06 09:27:01;;;;;;;;;;;;;;;;;;4362617;32;19978;-68
2021/01/06 09:29:34;;;;;;;;;;;;;;;;;;4353504;32;20001;-69
2021/01/06 11:44:28;;;;;;;;;;;;;;;;;;4375981;32;20056;-70
2021/01/06 11:47:28;;;;;;;;;;;;;;;;;;4377424;32;20360;-71
2021/01/06 11:50:43;;;;;;;;;;;;;;;;;;4378796;32;19970;-70
2021/01/06 11:53:41;;;;;;;;;;;;;;;;;;4378730;32;19978;-72
2021/01/06 11:56:26;;;;;;;;;;;;;;;;;;4378959;32;19978;-72
2021/01/06 11:59:52;;;;;;;;;;;;;;;;;;4378539;32;20045;-71
2021/01/06 12:03:03;;;;;;;;;;;;;;;;;;4378902;32;19977;-71
2021/01/06 12:06:21;;;;;;;;;;;;;;;;;;4378576;32;19989;-72
2021/01/06 12:09:12;;;;;;;;;;;;;;;;;;4368160;32;20442;-73
2021/01/06 12:12:09;;;;;;;;;;;;;;;;;;4380998;32;19982;-72
2021/01/06 12:15:07;;;;;;;;;;;;;;;;;;4378864;32;20416;-73
2021/01/06 12:18:01;;;;;;;;;;;;;;;;;;4377803;32;19978;-73
2021/01/06 12:20:56;;;;;;;;;;;;;;;;;;4354514;32;19971;-71
2021/01/06 12:24:08;;;;;;;;;;;;;;;;;;4379965;32;19970;-72
2021/01/06 12:27:22;;;;;;;;;;;;;;;;;;4368560;32;19974;-72
2021/01/06 12:31:07;;;;;;;;;;;;;;;;;;4378543;32;19981;-72
2021/01/06 12:34:19;;;;;;;;;;;;;;;;;;4378411;32;19981;-71
2021/01/06 12:37:07;;;;;;;;;;;;;;;;;;4366847;32;20013;-71
2021/01/06 12:40:18;;;;;;;;;;;;;;;;;;4378402;32;20425;-71
2021/01/06 12:43:10;;;;;;;;;;;;;;;;;;4365348;32;20078;-73
2021/01/06 12:46:37;;;;;;;;;;;;;;;;;;4369396;32;19978;-71
2021/01/06 12:52:19;;;;;;;;;;;;;;;;;;4361251;32;19997;-72
2021/01/06 12:55:21;;;;;;;;;;;;;;;;;;4357070;32;19985;-71
2021/01/06 15:11:23;;;;;;;;;;;;;;;;;;4415311;32;20403;-71
2021/01/06 15:15:05;;;;;;;;;;;;;;;;;;4407429;32;19975;-70
2021/01/06 15:18:18;;;;;;;;;;;;;;;;;;4409604;32;19981;-70
2021/01/06 20:47:00;;;;;;;;;;;;;;;;;;4396937;32;20489;-71
2021/01/06 20:49:38;;;;;;;;;;;;;;;;;;4378582;32;19962;-72
2021/01/06 20:52:14;;;;;;;;;;;;;;;;;;4393569;32;20377;-72
2021/01/06 20:54:49;;;;;;;;;;;;;;;;;;4380949;32;20429;-71
2021/01/06 20:57:22;;;;;;;;;;;;;;;;;;4370466;32;20421;-70
2021/01/06 21:00:21;;;;;;;;;;;;;;;;;;4395186;32;19989;-71
2021/01/06 21:03:08;;;;;;;;;;;;;;;;;;4374467;32;19970;-72
2021/01/06 21:05:38;;;;;;;;;;;;;;;;;;4373110;32;20005;-70
2021/01/06 21:08:06;;;;;;;;;;;;;;;;;;4381684;32;19993;-71
2021/01/06 21:10:35;;;;;;;;;;;;;;;;;;4380880;32;19969;-71
2021/01/06 21:13:06;;;;;;;;;;;;;;;;;;4381358;32;19978;-72
2021/01/06 21:15:39;;;;;;;;;;;;;;;;;;4379340;32;20034;-72
2021/01/06 21:18:13;;;;;;;;;;;;;;;;;;4393798;32;20053;-71
2021/01/06 21:20:42;;;;;;;;;;;;;;;;;;4367664;32;20403;-72
2021/01/06 21:23:12;;;;;;;;;;;;;;;;;;4367908;32;19993;-70
2021/01/06 21:25:42;;;;;;;;;;;;;;;;;;4353970;32;19985;-71
2021/01/06 21:28:11;;;;;;;;;;;;;;;;;;4393422;32;19987;-70
2021/01/06 21:30:43;;;;;;;;;;;;;;;;;;4379508;32;20415;-71
2021/01/06 21:33:10;;;;;;;;;;;;;;;;;;4374224;32;19973;-71
2021/01/06 21:35:36;;;;;;;;;;;;;;;;;;4395326;32;19978;-72
2021/01/06 21:38:02;;;;;;;;;;;;;;;;;;4381725;32;19974;-70
2021/01/06 21:40:28;;;;;;;;;;;;;;;;;;4381613;32;19978;-70
2021/01/06 21:42:56;;;;;;;;;;;;;;;;;;4382683;32;20388;-71
2021/01/06 21:45:22;;;;;;;;;;;;;;;;;;4381749;32;19961;-71
2021/01/06 21:47:53;;;;;;;;;;;;;;;;;;4392519;32;19988;-71
2021/01/06 21:50:22;;;;;;;;;;;;;;;;;;4378700;32;20444;-71
2021/01/06 21:52:48;;;;;;;;;;;;;;;;;;4378824;32;20055;-71
2021/01/06 21:55:15;;;;;;;;;;;;;;;;;;4354184;32;20411;-72
2021/01/06 21:57:43;;;;;;;;;;;;;;;;;;4366990;32;20368;-72
2021/01/06 22:00:13;;;;;;;;;;;;;;;;;;4379155;32;19982;-71
2021/01/06 22:02:43;;;;;;;;;;;;;;;;;;4367624;32;19989;-72
2021/01/06 22:05:12;;;;;;;;;;;;;;;;;;4381221;32;19965;-71
2021/01/06 22:07:39;;;;;;;;;;;;;;;;;;4366995;32;20053;-71
2021/01/06 22:10:09;;;;;;;;;;;;;;;;;;4367981;32;20047;-70
2021/01/06 22:12:40;;;;;;;;;;;;;;;;;;4367377;32;19966;-72
2021/01/06 22:15:11;;;;;;;;;;;;;;;;;;4366534;32;20000;-71
2021/01/06 22:17:39;;;;;;;;;;;;;;;;;;4378367;32;20015;-72
2021/01/06 22:20:05;;;;;;;;;;;;;;;;;;4365722;32;19970;-71
2021/01/06 22:22:34;;;;;;;;;;;;;;;;;;4378442;32;20086;-71
2021/01/06 22:25:04;;;;;;;;;;;;;;;;;;4379626;32;19996;-72
2021/01/06 22:27:33;;;;;;;;;;;;;;;;;;4379189;32;19977;-71
2021/01/06 22:30:01;;;;;;;;;;;;;;;;;;4366903;32;20130;-71
2021/01/06 22:32:27;;;;;;;;;;;;;;;;;;4384002;32;19976;-71
2021/01/06 22:34:52;;;;;;;;;;;;;;;;;;4394859;32;19985;-71
2021/01/06 22:37:18;;;;;;;;;;;;;;;;;;4383854;32;20020;-71
2021/01/06 22:39:44;;;;;;;;;;;;;;;;;;4397595;32;19986;-71
2021/01/06 22:42:15;;;;;;;;;;;;;;;;;;4397135;32;19986;-72
2021/01/06 22:44:45;;;;;;;;;;;;;;;;;;4392844;32;19965;-71
2021/01/06 22:47:20;;;;;;;;;;;;;;;;;;4392065;32;19981;-70
2021/01/06 22:49:46;;;;;;;;;;;;;;;;;;4364985;32;20061;-70
2021/01/06 22:52:13;;;;;;;;;;;;;;;;;;4365067;32;19970;-71
2021/01/06 22:54:41;;;;;;;;;;;;;;;;;;4376960;32;19979;-72
2021/01/06 22:57:10;;;;;;;;;;;;;;;;;;4376631;32;20408;-70
2021/01/06 22:59:42;;;;;;;;;;;;;;;;;;4377649;32;20045;-72
2021/01/06 23:02:08;;;;;;;;;;;;;;;;;;4377034;32;19988;-70
2021/01/06 23:04:41;;;;;;;;;;;;;;;;;;4378524;32;19970;-71
2021/01/06 23:07:11;;;;;;;;;;;;;;;;;;4377085;32;20048;-71
2021/01/06 23:09:38;;;;;;;;;;;;;;;;;;4377120;32;19984;-71
2021/01/06 23:12:06;;;;;;;;;;;;;;;;;;4366933;32;20001;-71
2021/01/06 23:14:33;;;;;;;;;;;;;;;;;;4367104;32;19974;-71
2021/01/06 23:17:00;;;;;;;;;;;;;;;;;;4366660;32;19986;-71
2021/01/06 23:19:26;;;;;;;;;;;;;;;;;;4379358;32;19970;-71
2021/01/06 23:21:56;;;;;;;;;;;;;;;;;;4368365;32;19988;-71
2021/01/06 23:24:22;;;;;;;;;;;;;;;;;;4351883;32;20422;-70
2021/01/06 23:26:51;;;;;;;;;;;;;;;;;;4372007;32;20404;-72
2021/01/06 23:29:17;;;;;;;;;;;;;;;;;;4379137;32;19986;-71
2021/01/06 23:31:44;;;;;;;;;;;;;;;;;;4379471;32;20046;-70
2021/01/06 23:34:19;;;;;;;;;;;;;;;;;;4406771;32;19981;-70
2021/01/06 23:36:45;;;;;;;;;;;;;;;;;;4369327;32;20469;-70
2021/01/06 23:39:11;;;;;;;;;;;;;;;;;;4394555;32;20359;-72
2021/01/06 23:41:38;;;;;;;;;;;;;;;;;;4394581;32;19970;-72
2021/01/06 23:44:05;;;;;;;;;;;;;;;;;;4382122;32;19969;-71
2021/01/06 23:46:31;;;;;;;;;;;;;;;;;;4381849;32;19973;-70
2021/01/06 23:48:58;;;;;;;;;;;;;;;;;;4371311;32;20120;-71
2021/01/06 23:51:23;;;;;;;;;;;;;;;;;;4363732;32;19977;-70
2021/01/06 23:53:49;;;;;;;;;;;;;;;;;;4352826;32;19974;-70
2021/01/06 23:56:14;;;;;;;;;;;;;;;;;;4364683;32;19982;-71
2021/01/06 23:58:41;;;;;;;;;;;;;;;;;;4352106;32;20055;-71
